Time;durP1;ratioP1;P1;durP2;ratioP2;P2;SDS_P1;SDS_P2;PMS_P1;PMS_P2;Temp;Humidity;BMP_temperature;BMP_pressure;BME280_temperature;BME280_humidity;BME280_pressure;Samples;Min_cycle;Max_cycle;Signal;HPM_P1;HPM_P2
2022/04/15 00:01:32;;;;;;;17.48;9.60;;;15.90;70.10;;;;;;4917356;29;20058;-75
2022/04/15 00:04:00;;;;;;;21.38;10.20;;;15.90;69.70;;;;;;4901287;29;20043;-74
2022/04/15 00:06:27;;;;;;;16.45;9.27;;;15.70;70.50;;;;;;4901548;29;20049;-76
2022/04/15 00:08:55;;;;;;;20.63;10.07;;;15.70;71.30;;;;;;4924167;29;20054;-74
2022/04/15 00:11:22;;;;;;;16.73;10.15;;;15.80;71.30;;;;;;4932975;29;20040;-73
2022/04/15 00:13:49;;;;;;;16.88;10.05;;;15.70;71.50;;;;;;4932854;29;20047;-73
2022/04/15 00:16:19;;;;;;;20.88;11.25;;;15.80;71.00;;;;;;4932970;29;20487;-74
2022/04/15 00:18:47;;;;;;;25.77;10.77;;;15.40;71.60;;;;;;4932384;29;20428;-74
2022/04/15 00:21:14;;;;;;;21.42;9.95;;;15.50;70.90;;;;;;4934797;29;20040;-76
2022/04/15 00:23:42;;;;;;;17.00;9.77;;;15.50;70.70;;;;;;4925138;29;20074;-74
2022/04/15 00:26:09;;;;;;;14.35;9.57;;;15.50;71.20;;;;;;4937118;29;20128;-74
2022/04/15 00:28:36;;;;;;;17.42;9.43;;;15.50;71.00;;;;;;4920282;29;20059;-75
2022/04/15 00:31:04;;;;;;;15.82;9.70;;;15.60;71.60;;;;;;4937721;29;20480;-75
2022/04/15 00:33:31;;;;;;;16.30;9.13;;;15.50;71.40;;;;;;4904555;29;20047;-75
2022/04/15 00:35:59;;;;;;;15.93;8.77;;;15.10;71.10;;;;;;4920055;29;20056;-77
2022/04/15 00:38:26;;;;;;;15.25;9.30;;;14.90;73.30;;;;;;4936969;29;20122;-74
2022/04/15 00:40:53;;;;;;;15.95;8.52;;;14.80;73.00;;;;;;4920410;29;20070;-77
2022/04/15 00:43:20;;;;;;;13.18;8.50;;;14.00;76.60;;;;;;4920315;29;20051;-75
2022/04/15 00:45:48;;;;;;;15.13;8.35;;;14.70;74.50;;;;;;4920403;29;20052;-78
2022/04/15 00:48:16;;;;;;;14.52;8.25;;;13.80;77.00;;;;;;4936889;29;20068;-74
2022/04/15 00:50:44;;;;;;;14.00;7.88;;;14.20;77.50;;;;;;4904816;29;20057;-77
2022/04/15 00:53:12;;;;;;;15.88;9.05;;;14.90;74.50;;;;;;4937170;29;20059;-79
2022/04/15 00:55:40;;;;;;;12.55;8.40;;;14.80;74.80;;;;;;4936956;29;20047;-77
2022/04/15 00:58:07;;;;;;;17.05;9.18;;;15.00;74.10;;;;;;4936593;29;20126;-77
2022/04/15 01:00:37;;;;;;;15.90;8.90;;;15.00;74.10;;;;;;4936781;29;20047;-77
2022/04/15 01:03:06;;;;;;;12.77;8.20;;;15.00;74.00;;;;;;4936776;29;20095;-76
2022/04/15 01:05:35;;;;;;;15.32;8.90;;;15.00;73.10;;;;;;4937216;29;20047;-79
2022/04/15 01:08:04;;;;;;;15.70;9.80;;;15.00;73.40;;;;;;4918573;29;20384;-78
2022/04/15 01:10:35;;;;;;;12.20;7.82;;;15.00;73.30;;;;;;4916572;29;20117;-74
2022/04/15 01:13:06;;;;;;;17.00;8.90;;;15.00;73.20;;;;;;4901096;29;20075;-80
2022/04/15 01:15:50;;;;;;;13.75;7.82;;;15.00;73.90;;;;;;4902786;29;20044;-73
2022/04/15 01:18:17;;;;;;;16.38;8.10;;;14.70;73.20;;;;;;4916350;29;20567;-76
2022/04/15 01:20:48;;;;;;;14.82;7.72;;;13.20;79.20;;;;;;4916796;29;20075;-78
2022/04/15 01:23:16;;;;;;;14.63;8.10;;;13.10;79.60;;;;;;4917696;29;20044;-80
2022/04/15 01:25:43;;;;;;;14.88;7.57;;;14.00;77.70;;;;;;4916257;29;20114;-76
2022/04/15 01:28:11;;;;;;;13.38;8.15;;;14.20;76.40;;;;;;4917268;29;20432;-78
2022/04/15 01:30:38;;;;;;;13.55;7.95;;;14.60;74.80;;;;;;4916216;29;20055;-75
2022/04/15 01:33:06;;;;;;;14.80;8.20;;;14.10;76.20;;;;;;4916937;29;20036;-76
2022/04/15 01:35:34;;;;;;;12.13;7.90;;;13.80;77.10;;;;;;4934101;29;20055;-75
2022/04/15 01:38:21;;;;;;;11.93;7.65;;;12.80;82.70;;;;;;4940931;29;20054;-76
2022/04/15 01:40:49;;;;;;;14.25;8.25;;;12.40;85.80;;;;;;4938392;29;20043;-76
2022/04/15 01:43:16;;;;;;;13.88;8.05;;;12.80;84.90;;;;;;4955225;29;20039;-77
2022/04/15 01:45:43;;;;;;;12.25;8.57;;;13.80;81.20;;;;;;4955194;29;20487;-75
2022/04/15 01:48:11;;;;;;;17.20;8.95;;;12.80;84.10;;;;;;4937452;29;20494;-76
2022/04/15 01:50:38;;;;;;;14.27;8.15;;;13.50;83.50;;;;;;4955258;29;20054;-75
2022/04/15 01:53:06;;;;;;;13.80;8.02;;;13.70;81.90;;;;;;4955218;29;20035;-77
2022/04/15 01:55:34;;;;;;;13.10;8.57;;;13.90;81.80;;;;;;4922019;29;20455;-78
2022/04/15 01:58:01;;;;;;;12.27;8.23;;;14.00;81.30;;;;;;4922145;29;20098;-75
2022/04/15 02:00:29;;;;;;;13.82;7.85;;;13.90;81.10;;;;;;4937765;29;20054;-77
2022/04/15 02:02:56;;;;;;;11.10;8.27;;;13.40;82.70;;;;;;4937615;29;20507;-76
2022/04/15 02:05:23;;;;;;;12.23;7.70;;;12.80;86.10;;;;;;4922000;29;20055;-77
2022/04/15 02:07:51;;;;;;;11.35;8.10;;;13.40;84.00;;;;;;4937664;29;20054;-77
2022/04/15 02:10:18;;;;;;;12.70;7.45;;;13.10;84.20;;;;;;4937308;29;20415;-76
2022/04/15 02:12:45;;;;;;;11.80;7.30;;;12.10;89.80;;;;;;4918343;29;20122;-74
2022/04/15 02:15:13;;;;;;;12.20;6.90;;;13.00;87.30;;;;;;4918462;29;20514;-77
2022/04/15 02:17:40;;;;;;;14.48;7.43;;;12.60;87.50;;;;;;4935351;29;20040;-77
2022/04/15 02:20:10;;;;;;;12.00;7.15;;;12.80;89.80;;;;;;4935521;29;20054;-77
2022/04/15 02:22:38;;;;;;;14.63;8.25;;;13.30;86.50;;;;;;4918276;29;20044;-73
2022/04/15 02:25:06;;;;;;;10.38;7.32;;;13.40;85.70;;;;;;4902674;29;20047;-76
2022/04/15 02:27:33;;;;;;;13.07;7.60;;;13.60;84.80;;;;;;4917754;29;20123;-74
2022/04/15 02:30:00;;;;;;;10.38;7.40;;;13.70;84.20;;;;;;4918384;29;20126;-77
2022/04/15 02:32:30;;;;;;;12.63;8.00;;;13.60;84.30;;;;;;4917866;29;20533;-74
2022/04/15 02:34:57;;;;;;;12.87;7.67;;;13.40;85.60;;;;;;4902532;29;20056;-72
2022/04/15 02:37:25;;;;;;;12.25;7.88;;;13.30;86.60;;;;;;4934947;29;20047;-74
2022/04/15 02:39:53;;;;;;;13.77;7.68;;;13.20;85.20;;;;;;4917577;29;20052;-77
2022/04/15 02:42:20;;;;;;;11.20;7.28;;;13.30;85.10;;;;;;4902174;29;20074;-76
2022/04/15 02:44:48;;;;;;;12.07;7.55;;;12.70;89.30;;;;;;4917399;29;20407;-76
2022/04/15 02:47:15;;;;;;;13.65;6.75;;;13.00;87.70;;;;;;4934834;29;20118;-75
2022/04/15 02:49:42;;;;;;;10.55;7.00;;;12.80;87.80;;;;;;4918175;29;20075;-75
2022/04/15 02:52:10;;;;;;;14.98;7.45;;;12.60;90.00;;;;;;4902297;29;20073;-75
2022/04/15 02:54:40;;;;;;;11.52;7.32;;;12.40;90.70;;;;;;4934922;29;20400;-74
2022/04/15 02:57:08;;;;;;;;;;;11.80;91.70;;;;;;4917992;29;20491;-74
2022/04/15 02:59:35;;;;;;;11.07;7.03;;;12.20;92.00;;;;;;4918102;29;19923;-74
2022/04/15 03:02:02;;;;;;;14.00;7.10;;;12.30;91.20;;;;;;4934349;29;20050;-77
2022/04/15 03:04:30;;;;;;;11.15;6.70;;;12.00;92.70;;;;;;4918221;29;20052;-76
2022/04/15 03:06:57;;;;;;;12.68;7.20;;;12.40;92.10;;;;;;4917810;29;20411;-76
2022/04/15 03:09:27;;;;;;;11.25;6.93;;;12.30;92.10;;;;;;4922970;29;20039;-74
2022/04/15 03:11:54;;;;;;;12.02;6.82;;;12.00;93.20;;;;;;4933547;29;20503;-75
2022/04/15 03:14:22;;;;;;;11.43;7.47;;;12.10;93.00;;;;;;4933845;29;20043;-76
2022/04/15 03:16:49;;;;;;;13.13;7.25;;;12.40;92.70;;;;;;4934327;29;20050;-74
2022/04/15 03:19:16;;;;;;;12.93;7.80;;;12.40;92.50;;;;;;4949278;29;20513;-77
2022/04/15 03:21:44;;;;;;;9.80;6.80;;;12.30;93.30;;;;;;4934454;29;20039;-78
2022/04/15 03:24:11;;;;;;;12.70;7.47;;;12.10;93.40;;;;;;4934656;29;20616;-76
2022/04/15 03:26:38;;;;;;;10.63;6.60;;;12.60;92.80;;;;;;4933158;29;20058;-74
2022/04/15 03:29:05;;;;;;;13.45;7.50;;;12.90;91.50;;;;;;4934567;29;20040;-76
2022/04/15 03:31:33;;;;;;;12.18;7.45;;;13.00;91.10;;;;;;4934446;29;20051;-74
2022/04/15 03:34:00;;;;;;;13.13;7.18;;;13.20;91.20;;;;;;4933784;29;20452;-76
2022/04/15 03:36:28;;;;;;;12.90;7.60;;;13.20;91.20;;;;;;4916978;29;20059;-76
2022/04/15 03:38:55;;;;;;;13.50;8.30;;;13.10;91.40;;;;;;4915271;29;20047;-75
2022/04/15 03:41:22;;;;;;;11.40;8.38;;;13.20;91.80;;;;;;4915113;29;20131;-75
2022/04/15 03:43:50;;;;;;;13.82;9.10;;;13.30;91.70;;;;;;4914211;29;20044;-75
2022/04/15 03:46:17;;;;;;;15.23;9.65;;;13.20;91.80;;;;;;4915040;29;20044;-75
2022/04/15 03:48:45;;;;;;;20.60;9.40;;;12.90;92.80;;;;;;4915227;29;20110;-77
2022/04/15 03:51:12;;;;;;;15.45;10.18;;;13.10;92.50;;;;;;4914581;29;20438;-76
2022/04/15 03:53:40;;;;;;;13.65;9.57;;;13.00;92.40;;;;;;4915064;29;20074;-76
2022/04/15 03:56:07;;;;;;;15.32;9.88;;;13.00;92.70;;;;;;4918575;29;20467;-74
2022/04/15 03:58:35;;;;;;;17.55;9.82;;;12.90;92.60;;;;;;4901744;29;20408;-75
2022/04/15 04:01:03;;;;;;;15.77;9.45;;;12.80;92.90;;;;;;4902505;29;20415;-74
2022/04/15 04:03:30;;;;;;;16.80;10.82;;;12.60;93.80;;;;;;4917768;29;20466;-73
2022/04/15 04:05:58;;;;;;;14.77;9.68;;;12.70;93.80;;;;;;4918980;29;20099;-72
2022/04/15 04:08:25;;;;;;;20.92;10.55;;;12.80;93.70;;;;;;4917637;29;20080;-74
2022/04/15 04:10:53;;;;;;;22.55;10.50;;;12.80;93.70;;;;;;4902630;29;20047;-73
2022/04/15 04:13:20;;;;;;;17.83;11.18;;;12.60;94.10;;;;;;4918664;29;20052;-74
2022/04/15 04:15:47;;;;;;;17.08;10.88;;;12.70;93.90;;;;;;4902092;29;20059;-73
2022/04/15 04:18:17;;;;;;;18.65;9.88;;;12.60;94.20;;;;;;4886274;29;20044;-74
2022/04/15 04:20:45;;;;;;;17.45;10.38;;;12.70;94.00;;;;;;4901883;29;20512;-73
2022/04/15 04:23:12;;;;;;;15.45;10.00;;;12.70;93.80;;;;;;4901584;29;20118;-74
2022/04/15 04:25:39;;;;;;;17.45;9.80;;;12.70;93.60;;;;;;4918261;29;20047;-75
2022/04/15 04:28:07;;;;;;;15.70;9.30;;;12.50;93.90;;;;;;4918124;29;20044;-75
2022/04/15 04:30:34;;;;;;;19.38;8.40;;;12.30;93.90;;;;;;4901680;29;20044;-74
2022/04/15 04:33:01;;;;;;;14.63;9.18;;;12.20;94.00;;;;;;4901313;29;20548;-75
2022/04/15 04:35:29;;;;;;;12.63;8.82;;;12.40;93.20;;;;;;4909075;29;20793;-72
2022/04/15 04:37:56;;;;;;;13.52;8.85;;;12.30;93.30;;;;;;4904594;29;20058;-75
2022/04/15 04:40:24;;;;;;;16.38;8.32;;;12.20;93.20;;;;;;4904677;29;20050;-75
2022/04/15 04:42:52;;;;;;;14.90;8.23;;;12.20;93.20;;;;;;4936829;29;20073;-72
2022/04/15 04:45:19;;;;;;;15.38;7.78;;;12.40;92.80;;;;;;4920307;29;20138;-78
2022/04/15 04:47:48;;;;;;;17.35;8.25;;;12.40;92.40;;;;;;4904719;29;20040;-74
2022/04/15 04:50:16;;;;;;;11.65;8.38;;;12.20;92.60;;;;;;4904305;29;20439;-73
2022/04/15 04:52:43;;;;;;;16.33;8.85;;;12.30;92.70;;;;;;4919645;29;20082;-75
2022/04/15 04:55:11;;;;;;;13.35;9.20;;;12.40;92.50;;;;;;4920029;29;20398;-75
2022/04/15 04:57:39;;;;;;;15.18;9.57;;;12.40;92.30;;;;;;4919791;29;20043;-75
2022/04/15 05:00:09;;;;;;;11.80;8.93;;;12.40;92.30;;;;;;4920081;29;20519;-75
2022/04/15 05:02:37;;;;;;;16.60;8.18;;;12.40;92.00;;;;;;4917236;29;20048;-76
2022/04/15 05:05:05;;;;;;;16.92;8.95;;;12.10;92.20;;;;;;4919774;29;20510;-76
2022/04/15 05:07:33;;;;;;;22.13;14.50;;;12.00;93.50;;;;;;4935794;29;20071;-77
2022/04/15 05:10:07;;;;;;;59.03;32.88;;;12.20;94.60;;;;;;4936778;29;20110;-76
2022/04/15 05:12:34;;;;;;;21.75;11.88;;;12.40;93.40;;;;;;4935588;29;20040;-76
2022/04/15 05:15:02;;;;;;;68.93;40.53;;;12.40;92.80;;;;;;4936258;29;20043;-75
2022/04/15 05:17:29;;;;;;;27.73;17.13;;;12.20;93.40;;;;;;4935378;29;20126;-77
2022/04/15 05:19:57;;;;;;;19.65;12.77;;;12.50;93.10;;;;;;4919010;29;20043;-79
2022/04/15 05:22:24;;;;;;;84.03;45.70;;;12.60;92.70;;;;;;4918900;29;20050;-77
2022/04/15 05:24:52;;;;;;;368.92;220.18;;;12.30;93.00;;;;;;4903500;29;20138;-75
2022/04/15 05:27:20;;;;;;;31.67;24.80;;;12.20;93.70;;;;;;4902860;29;20032;-75
2022/04/15 05:29:47;;;;;;;15.02;10.38;;;12.30;93.20;;;;;;4935805;29;20502;-77
2022/04/15 05:32:14;;;;;;;15.07;8.95;;;12.20;93.10;;;;;;4918764;29;20043;-75
2022/04/15 05:34:46;;;;;;;15.32;8.45;;;12.20;93.60;;;;;;4933669;29;20054;-77
2022/04/15 05:37:13;;;;;;;14.15;8.65;;;12.30;93.70;;;;;;4899574;29;20052;-75
2022/04/15 05:39:40;;;;;;;12.98;8.82;;;12.50;93.60;;;;;;4916421;29;20044;-77
2022/04/15 05:42:08;;;;;;;17.65;9.00;;;12.90;93.40;;;;;;4883999;29;20055;-77
2022/04/15 05:44:35;;;;;;;16.17;8.43;;;12.60;94.30;;;;;;4900092;29;20099;-79
2022/04/15 05:47:03;;;;;;;12.02;8.43;;;12.40;95.00;;;;;;4899711;29;20040;-76
2022/04/15 05:49:34;;;;;;;15.18;8.38;;;12.50;94.40;;;;;;4883993;29;20107;-79
2022/04/15 05:52:02;;;;;;;10.73;7.47;;;12.60;95.00;;;;;;4882364;29;20044;-76
2022/04/15 05:54:29;;;;;;;15.18;8.23;;;12.40;94.50;;;;;;4884496;29;20148;-76
2022/04/15 05:56:57;;;;;;;15.05;7.85;;;12.60;94.10;;;;;;4899764;29;20047;-76
2022/04/15 05:59:24;;;;;;;13.23;7.65;;;12.60;93.60;;;;;;4899772;29;20044;-75
2022/04/15 06:01:51;;;;;;;11.63;8.00;;;12.50;93.90;;;;;;4899635;29;20563;-77
2022/04/15 06:04:19;;;;;;;14.35;8.18;;;12.70;93.60;;;;;;4882691;29;20055;-84
2022/04/15 06:06:47;;;;;;;16.90;8.02;;;12.70;93.80;;;;;;4897880;29;20056;-81
2022/04/15 06:09:14;;;;;;;11.75;7.93;;;12.80;94.10;;;;;;4915008;29;20052;-84
2022/04/15 06:11:42;;;;;;;16.50;8.75;;;12.90;94.00;;;;;;4915430;29;20028;-85
2022/04/15 06:14:09;;;;;;;13.75;8.75;;;12.60;93.90;;;;;;4913956;29;20081;-81
2022/04/15 06:16:39;;;;;;;15.10;9.48;;;12.80;93.90;;;;;;4913731;29;20397;-75
2022/04/15 06:19:06;;;;;;;16.15;9.38;;;12.90;94.10;;;;;;4899810;29;20056;-76
2022/04/15 06:21:51;;;;;;;15.93;9.48;;;12.80;93.90;;;;;;4915234;29;20449;-79
2022/04/15 06:24:19;;;;;;;19.05;11.65;;;12.90;94.00;;;;;;4915286;29;20484;-82
2022/04/15 06:26:46;;;;;;;21.80;12.35;;;12.70;94.20;;;;;;4915175;29;20146;-75
2022/04/15 06:29:15;;;;;;;25.48;12.18;;;12.80;94.70;;;;;;4916393;29;20433;-79
2022/04/15 06:31:44;;;;;;;20.73;11.60;;;12.70;95.20;;;;;;4915258;29;20460;-77
2022/04/15 06:34:15;;;;;;;22.92;12.23;;;12.60;95.60;;;;;;4916049;29;20044;-81
2022/04/15 06:36:42;;;;;;;20.63;11.73;;;12.80;95.60;;;;;;4914918;29;20423;-77
2022/04/15 06:39:10;;;;;;;21.35;12.20;;;13.00;95.30;;;;;;4915239;29;20048;-79
2022/04/15 06:41:37;;;;;;;23.75;11.40;;;13.20;95.10;;;;;;4914779;29;20194;-81
2022/04/15 06:44:05;;;;;;;20.58;11.27;;;13.10;94.90;;;;;;4898871;29;20415;-79
2022/04/15 06:46:32;;;;;;;20.40;10.65;;;13.10;95.20;;;;;;4899204;29;20071;-80
2022/04/15 06:48:59;;;;;;;15.27;10.68;;;13.10;95.50;;;;;;4914594;29;20044;-80
2022/04/15 06:51:27;;;;;;;21.27;11.02;;;13.30;95.60;;;;;;4916439;29;20055;-78
2022/04/15 06:53:54;;;;;;;19.38;10.65;;;13.30;96.00;;;;;;4915190;29;20043;-77
2022/04/15 06:56:21;;;;;;;19.35;10.38;;;13.20;96.60;;;;;;4915719;29;20048;-81
2022/04/15 06:58:49;;;;;;;17.67;10.27;;;13.40;96.40;;;;;;4898827;29;20555;-80
2022/04/15 07:01:16;;;;;;;12.45;8.98;;;13.20;96.60;;;;;;4914722;29;20052;-81
2022/04/15 07:03:43;;;;;;;15.90;9.80;;;13.30;96.10;;;;;;4914365;29;20470;-81
2022/04/15 07:06:11;;;;;;;17.00;10.10;;;13.30;96.40;;;;;;4914611;29;20608;-80
2022/04/15 07:08:38;;;;;;;22.70;10.25;;;13.40;96.30;;;;;;4898612;29;20052;-79
2022/04/15 07:11:05;;;;;;;19.83;10.98;;;13.60;96.80;;;;;;4915661;29;20044;-80
2022/04/15 07:13:37;;;;;;;15.73;9.88;;;13.60;96.80;;;;;;4899072;29;20040;-80
2022/04/15 07:16:05;;;;;;;17.33;9.50;;;13.60;97.40;;;;;;4883753;29;20104;-80
2022/04/15 07:18:32;;;;;;;16.88;9.60;;;13.60;97.40;;;;;;4898678;29;20373;-80
2022/04/15 07:21:00;;;;;;;17.60;8.13;;;13.60;96.90;;;;;;4883334;29;20058;-79
2022/04/15 07:23:27;;;;;;;17.23;8.20;;;13.60;96.80;;;;;;4883025;29;20051;-81
2022/04/15 07:25:55;;;;;;;14.10;8.45;;;13.80;97.50;;;;;;4883092;29;20055;-78
2022/04/15 07:28:22;;;;;;;14.45;8.93;;;13.80;96.60;;;;;;4898521;29;20048;-81
2022/04/15 07:30:50;;;;;;;17.80;8.18;;;13.80;97.40;;;;;;4898392;29;20131;-80
2022/04/15 07:33:17;;;;;;;15.57;7.82;;;13.80;97.30;;;;;;4897921;29;20112;-78
2022/04/15 07:35:46;;;;;;;17.02;8.23;;;13.90;97.40;;;;;;4908345;29;20056;-78
2022/04/15 07:38:14;;;;;;;13.77;8.20;;;13.80;97.10;;;;;;4917900;29;20452;-82
2022/04/15 07:40:41;;;;;;;13.18;7.80;;;13.70;97.60;;;;;;4933629;29;20044;-78
2022/04/15 07:43:09;;;;;;;15.60;7.80;;;13.90;98.30;;;;;;4915931;29;20043;-79
2022/04/15 07:45:37;;;;;;;16.85;8.00;;;14.00;97.50;;;;;;4900607;29;20415;-78
2022/04/15 07:48:05;;;;;;;14.23;8.25;;;14.00;96.90;;;;;;4900101;29;20074;-80
2022/04/15 07:50:33;;;;;;;17.08;8.15;;;14.10;96.50;;;;;;4931876;29;20611;-80
2022/04/15 07:53:01;;;;;;;14.07;7.88;;;14.10;97.30;;;;;;4916041;29;20123;-81
2022/04/15 07:55:28;;;;;;;17.83;6.93;;;14.20;96.30;;;;;;4915789;29;20044;-79
2022/04/15 07:57:56;;;;;;;12.93;7.38;;;14.20;95.40;;;;;;4915834;29;20060;-76
2022/04/15 08:00:24;;;;;;;11.32;7.75;;;14.30;95.50;;;;;;4915500;29;20102;-76
2022/04/15 08:02:52;;;;;;;12.43;7.60;;;14.30;95.50;;;;;;4904169;29;20047;-80
2022/04/15 08:05:20;;;;;;;11.25;7.88;;;14.30;96.00;;;;;;4882862;29;20046;-76
2022/04/15 08:07:47;;;;;;;12.40;7.88;;;14.40;96.30;;;;;;4898017;29;20494;-79
2022/04/15 08:10:16;;;;;;;11.13;7.75;;;14.40;96.90;;;;;;4920603;29;20047;-75
2022/04/15 08:12:44;;;;;;;10.30;6.78;;;14.60;96.90;;;;;;4933037;29;20083;-77
2022/04/15 08:15:11;;;;;;;10.93;6.43;;;14.60;96.90;;;;;;4933991;29;20055;-77
2022/04/15 08:17:39;;;;;;;11.13;7.05;;;14.60;97.20;;;;;;4948611;29;20075;-77
2022/04/15 08:20:07;;;;;;;13.80;6.72;;;14.70;97.30;;;;;;4933808;29;20047;-79
2022/04/15 08:22:36;;;;;;;15.95;6.90;;;14.80;97.70;;;;;;4948659;29;20043;-80
2022/04/15 08:25:04;;;;;;;14.07;6.47;;;14.90;97.10;;;;;;4948157;28;20066;-78
2022/04/15 08:27:32;;;;;;;14.75;6.85;;;14.90;97.00;;;;;;4913234;29;20068;-77
2022/04/15 08:29:59;;;;;;;11.00;6.28;;;15.00;97.40;;;;;;4933594;29;20079;-77
2022/04/15 08:32:33;;;;;;;10.07;6.30;;;15.00;96.80;;;;;;4933569;29;20510;-78
2022/04/15 08:35:10;;;;;;;10.38;5.97;;;15.00;96.80;;;;;;4902041;29;20538;-80
2022/04/15 08:37:38;;;;;;;14.20;5.90;;;15.00;96.50;;;;;;4916710;29;20048;-78
2022/04/15 08:40:06;;;;;;;7.80;5.47;;;15.00;97.50;;;;;;4916892;29;20044;-75
2022/04/15 08:42:35;;;;;;;15.32;6.20;;;15.00;96.90;;;;;;4918940;29;20123;-78
2022/04/15 08:45:06;;;;;;;12.07;5.53;;;15.30;96.80;;;;;;4920283;29;20046;-75
2022/04/15 08:47:37;;;;;;;8.80;5.50;;;15.30;95.90;;;;;;4936936;29;20456;-80
2022/04/15 08:50:12;;;;;;;10.15;5.22;;;15.30;95.80;;;;;;4937169;29;20078;-76
2022/04/15 08:52:40;;;;;;;10.57;6.10;;;15.30;95.70;;;;;;4937023;29;20416;-75
2022/04/15 08:55:09;;;;;;;7.90;5.43;;;15.30;95.30;;;;;;4934334;29;20042;-76
2022/04/15 08:57:57;;;;;;;9.20;5.70;;;15.50;95.50;;;;;;4876746;29;20071;-79
2022/04/15 09:00:29;;;;;;;9.88;5.93;;;15.60;95.80;;;;;;4917450;29;20155;-85
2022/04/15 09:02:57;;;;;;;10.18;5.68;;;15.70;95.60;;;;;;4935372;29;20039;-83
2022/04/15 09:05:28;;;;;;;12.23;5.60;;;15.70;95.60;;;;;;4935500;29;20050;-80
2022/04/15 09:08:06;;;;;;;11.85;5.70;;;15.80;95.00;;;;;;4933541;29;20118;-76
2022/04/15 09:10:35;;;;;;;12.32;5.57;;;15.80;93.60;;;;;;4920086;29;20103;-79
2022/04/15 09:13:04;;;;;;;8.90;4.90;;;15.70;93.60;;;;;;4919779;29;20055;-78
2022/04/15 09:15:35;;;;;;;8.32;5.03;;;15.70;93.70;;;;;;4936000;29;20400;-79
2022/04/15 09:18:03;;;;;;;9.82;5.85;;;15.70;93.20;;;;;;4919257;29;20074;-79
2022/04/15 09:20:33;;;;;;;8.23;5.63;;;15.90;93.60;;;;;;4936297;29;20131;-81
2022/04/15 09:23:14;;;;;;;8.30;5.30;;;15.90;93.10;;;;;;4919660;29;20039;-80
2022/04/15 09:25:41;;;;;;;;;;;16.10;93.00;;;;;;4904628;29;20056;-79
2022/04/15 09:28:13;;;;;;;7.63;5.30;;;16.50;92.50;;;;;;4919491;29;19929;-76
2022/04/15 09:30:43;;;;;;;6.70;4.75;;;16.50;90.90;;;;;;4919109;29;20048;-75
2022/04/15 09:33:11;;;;;;;9.80;4.53;;;16.50;90.30;;;;;;4919145;29;20387;-73
2022/04/15 09:35:45;;;;;;;10.77;4.82;;;16.30;88.80;;;;;;4926874;29;20424;-73
2022/04/15 09:38:13;;;;;;;7.90;4.78;;;16.20;89.50;;;;;;4917275;29;20104;-73
2022/04/15 09:40:40;;;;;;;8.88;4.75;;;16.30;91.30;;;;;;4917453;29;20383;-76
2022/04/15 09:43:07;;;;;;;9.23;5.72;;;16.40;90.30;;;;;;4917064;29;20048;-73
2022/04/15 09:45:38;;;;;;;9.23;5.10;;;16.40;88.60;;;;;;4916241;29;20028;-73
2022/04/15 09:48:08;;;;;;;16.85;4.78;;;16.50;90.20;;;;;;4916701;29;20048;-73
2022/04/15 09:50:42;;;;;;;;;;;16.60;90.80;;;;;;4884456;29;20107;-73
2022/04/15 09:53:15;;;;;;;8.43;4.45;;;16.60;90.40;;;;;;4915207;29;19923;-73
2022/04/15 09:55:46;;;;;;;8.70;4.72;;;16.70;90.30;;;;;;4917321;29;20592;-74
2022/04/15 09:58:20;;;;;;;8.77;4.78;;;16.70;90.60;;;;;;4915880;29;20068;-76
2022/04/15 10:00:51;;;;;;;10.43;4.68;;;16.70;91.00;;;;;;4899318;29;20404;-73
2022/04/15 10:03:23;;;;;;;7.07;4.28;;;16.80;87.80;;;;;;4916426;29;20456;-73
2022/04/15 10:05:55;;;;;;;8.18;4.47;;;16.90;84.60;;;;;;4900403;29;20115;-74
2022/04/15 10:08:27;;;;;;;14.00;5.03;;;17.10;87.60;;;;;;4915842;29;20772;-72
2022/04/15 10:10:55;;;;;;;7.85;4.03;;;17.10;87.30;;;;;;4914998;29;20040;-74
2022/04/15 10:13:28;;;;;;;8.55;4.95;;;17.10;85.60;;;;;;4915285;29;20072;-72
2022/04/15 10:15:56;;;;;;;7.25;4.38;;;17.20;86.60;;;;;;4915584;29;20051;-72
2022/04/15 10:18:25;;;;;;;8.05;4.55;;;17.30;83.10;;;;;;4916021;29;20056;-73
2022/04/15 10:20:56;;;;;;;7.28;4.53;;;17.40;83.70;;;;;;4916418;29;20551;-74
2022/04/15 10:23:24;;;;;;;7.43;4.50;;;17.40;82.20;;;;;;4916236;29;20423;-73
2022/04/15 10:25:52;;;;;;;9.13;4.32;;;17.60;79.20;;;;;;4916474;29;20040;-73
2022/04/15 10:28:37;;;;;;;7.63;4.55;;;17.50;80.40;;;;;;4899239;29;20048;-74
2022/04/15 10:31:12;;;;;;;8.38;3.70;;;17.60;82.20;;;;;;4915976;29;20044;-73
2022/04/15 10:33:41;;;;;;;8.02;4.25;;;17.80;76.60;;;;;;4916126;29;20095;-74
2022/04/15 10:36:23;;;;;;;7.97;4.03;;;17.90;74.70;;;;;;4915646;29;20059;-73
2022/04/15 10:39:03;;;;;;;11.43;3.72;;;18.10;75.60;;;;;;4915911;29;20654;-74
2022/04/15 10:41:57;;;;;;;13.88;4.22;;;18.10;74.60;;;;;;4915982;29;20400;-74
2022/04/15 10:44:27;;;;;;;6.63;3.50;;;18.20;74.60;;;;;;4913586;29;20056;-74
2022/04/15 10:47:17;;;;;;;6.65;3.75;;;18.60;72.00;;;;;;4899603;29;20395;-77
2022/04/15 10:50:03;;;;;;;7.38;3.90;;;18.50;73.70;;;;;;4903402;29;20056;-74
2022/04/15 10:52:34;;;;;;;13.52;4.00;;;18.40;74.20;;;;;;4915510;29;20084;-73
2022/04/15 10:55:10;;;;;;;6.57;3.85;;;18.40;75.60;;;;;;4916146;29;20149;-73
2022/04/15 10:57:40;;;;;;;7.97;4.05;;;18.70;76.00;;;;;;4915642;29;20048;-74
2022/04/15 11:03:22;;;;;;;18.42;5.72;;;19.30;72.70;;;;;;4913955;29;20040;-74
2022/04/15 11:05:52;;;;;;;17.30;4.78;;;19.20;73.70;;;;;;4913400;29;20044;-74
2022/04/15 11:08:21;;;;;;;6.75;4.15;;;19.20;72.00;;;;;;4896770;29;20040;-75
2022/04/15 11:11:07;;;;;;;7.85;4.28;;;19.10;69.90;;;;;;4914434;29;20051;-74
2022/04/15 11:13:42;;;;;;;13.13;4.60;;;19.10;70.50;;;;;;4913916;29;20044;-74
2022/04/15 11:16:14;;;;;;;10.68;4.60;;;19.30;70.50;;;;;;4897408;29;20044;-74
2022/04/15 11:19:00;;;;;;;9.43;4.05;;;19.30;69.70;;;;;;4914657;29;20083;-75
2022/04/15 11:21:39;;;;;;;8.20;4.00;;;19.50;69.00;;;;;;4912694;29;20510;-73
2022/04/15 11:24:14;;;;;;;9.85;3.78;;;19.70;68.50;;;;;;4915173;29;20053;-74
2022/04/15 11:26:44;;;;;;;8.10;4.07;;;19.80;67.90;;;;;;4913756;29;20420;-73
2022/04/15 11:29:14;;;;;;;8.67;3.90;;;19.90;67.50;;;;;;4914876;29;20344;-78
2022/04/15 11:31:46;;;;;;;8.57;3.58;;;19.90;67.70;;;;;;4915245;29;20406;-79
2022/04/15 11:34:17;;;;;;;6.53;3.35;;;20.00;67.00;;;;;;4915578;29;20044;-77
2022/04/15 11:36:47;;;;;;;13.93;4.32;;;20.10;67.50;;;;;;4929291;29;20067;-75
2022/04/15 11:39:16;;;;;;;7.45;3.65;;;20.40;67.20;;;;;;4915276;29;20060;-75
2022/04/15 11:41:48;;;;;;;7.90;4.03;;;20.60;65.10;;;;;;4915014;29;20055;-76
2022/04/15 11:44:17;;;;;;;7.20;3.42;;;20.50;65.20;;;;;;4915716;29;20036;-77
2022/04/15 11:46:53;;;;;;;11.55;3.50;;;20.60;66.10;;;;;;4914273;29;20056;-75
2022/04/15 11:49:23;;;;;;;6.93;3.92;;;20.60;65.00;;;;;;4915232;29;20504;-75
2022/04/15 11:51:53;;;;;;;7.07;3.63;;;20.70;65.30;;;;;;4915013;29;20059;-77
2022/04/15 11:54:23;;;;;;;11.75;3.35;;;20.90;63.60;;;;;;4915242;29;20047;-77
2022/04/15 11:56:57;;;;;;;6.53;3.63;;;21.00;64.50;;;;;;4915014;29;20410;-76
2022/04/15 11:59:25;;;;;;;6.78;3.30;;;21.10;65.10;;;;;;4914098;29;20047;-75
2022/04/15 12:01:53;;;;;;;6.18;3.50;;;21.20;63.00;;;;;;4914776;29;20056;-78
2022/04/15 12:04:21;;;;;;;6.22;2.97;;;21.70;59.80;;;;;;4915383;29;20041;-76
2022/04/15 12:06:48;;;;;;;7.03;3.22;;;21.80;58.80;;;;;;4914881;29;20055;-80
2022/04/15 12:09:16;;;;;;;7.55;3.30;;;22.00;56.80;;;;;;4914992;29;20044;-78
2022/04/15 12:12:05;;;;;;;4.63;2.60;;;22.50;53.70;;;;;;4914899;29;20051;-78
2022/04/15 12:14:39;;;;;;;8.07;3.25;;;23.10;53.20;;;;;;4915060;29;20060;-77
2022/04/15 12:17:10;;;;;;;9.52;3.10;;;23.10;52.00;;;;;;4917601;29;20044;-76
2022/04/15 12:19:39;;;;;;;8.43;3.00;;;22.70;53.30;;;;;;4918758;29;20637;-77
2022/04/15 12:22:09;;;;;;;9.45;3.20;;;22.40;54.80;;;;;;4918252;29;20051;-77
2022/04/15 12:24:37;;;;;;;5.93;2.90;;;22.20;54.80;;;;;;4918738;29;20461;-77
2022/04/15 12:27:05;;;;;;;7.93;3.42;;;22.20;56.30;;;;;;4916758;29;20040;-76
2022/04/15 12:29:48;;;;;;;9.00;3.85;;;22.40;56.50;;;;;;4899703;29;20044;-77
2022/04/15 12:32:29;;;;;;;10.35;3.40;;;22.40;55.80;;;;;;4916699;29;20564;-76
2022/04/15 12:34:59;;;;;;;9.25;3.47;;;22.50;54.00;;;;;;4916782;29;20080;-77
2022/04/15 12:37:39;;;;;;;;;;;22.70;53.20;;;;;;4916671;29;20415;-76
2022/04/15 12:40:09;;;;;;;6.22;3.22;;;22.60;53.70;;;;;;4916753;29;19923;-77
2022/04/15 12:42:39;;;;;;;5.53;3.40;;;22.60;54.20;;;;;;4917717;29;20063;-77
2022/04/15 12:45:21;;;;;;;8.50;3.53;;;22.60;54.60;;;;;;4918007;29;20391;-76
2022/04/15 12:48:02;;;;;;;6.05;3.03;;;22.70;55.30;;;;;;4918102;29;20088;-77
2022/04/15 12:50:35;;;;;;;5.93;3.05;;;22.80;53.70;;;;;;4918565;29;20571;-77
2022/04/15 12:53:22;;;;;;;9.07;3.55;;;23.00;53.20;;;;;;4917407;29;20048;-75